Terminal Aerodrome Forecast
Issued by NWS Charleston, WV

Current Version | Previous Version | Text Only | Print | Product List | Glossary Off
Versions: 1 2 3 4 5 6 7 8 9 10 11 12 13 14 15 16 17 18 19 20 21 22 23 24 25

000
FTUS41 KRLX 061735
TAFEKN
TAF
KEKN 061735Z 0618/0718 00000KT 5SM BR VCTS BKN025CB
     FM070200 VRB03KT 5SM BR BKN025
     FM070600 VRB03KT 2SM BR BKN015
     FM070900 22004KT 1/2SM FG BKN001 BKN015
     FM071200 22004KT 2SM BR SCT001 BKN015
     FM071400 24006KT P6SM SCT060=

USA.gov is the U.S. government's official web portal to all federal, state and local government web resources and services.